Time;durP1;ratioP1;P1;durP2;ratioP2;P2;SDS_P1;SDS_P2;PMS_P1;PMS_P2;Temp;Humidity;BMP_temperature;BMP_pressure;BME280_temperature;BME280_humidity;BME280_pressure;Samples;Min_cycle;Max_cycle;Signal;HPM_P1;HPM_P2
2024/01/01 00:01:06;;;;;;;;;11.00;6.67;;;;;;;;5068736;28;28774;-80
2024/01/01 00:03:31;;;;;;;;;13.67;9.00;;;;;;;;5051724;28;28461;-78
2024/01/01 00:05:57;;;;;;;;;13.00;10.00;;;;;;;;5083429;28;29166;-77
2024/01/01 00:08:22;;;;;;;;;13.33;12.00;;;;;;;;5084213;28;28893;-79
2024/01/01 00:10:47;;;;;;;;;23.33;15.00;;;;;;;;5075831;28;28998;-79
2024/01/01 00:13:12;;;;;;;;;25.00;16.67;;;;;;;;5075052;28;28838;-79
2024/01/01 00:15:38;;;;;;;;;23.33;20.33;;;;;;;;5062791;28;28757;-77
2024/01/01 00:18:03;;;;;;;;;25.00;20.33;;;;;;;;5076110;28;29055;-79
2024/01/01 00:20:28;;;;;;;;;26.67;22.00;;;;;;;;5069818;28;27927;-79
2024/01/01 00:22:54;;;;;;;;;10.00;9.00;;;;;;;;5073332;28;28544;-79
2024/01/01 00:25:22;;;;;;;;;27.00;21.00;;;;;;;;5079461;28;29121;-79
2024/01/01 00:27:47;;;;;;;;;15.67;7.67;;;;;;;;5069877;28;29309;-79
2024/01/01 00:30:12;;;;;;;;;13.67;9.67;;;;;;;;5085019;28;28436;-79
2024/01/01 00:32:38;;;;;;;;;3.33;3.33;;;;;;;;5070824;28;28489;-79
2024/01/01 00:35:04;;;;;;;;;11.33;8.33;;;;;;;;5076994;28;28650;-79
2024/01/01 00:37:29;;;;;;;;;12.67;10.67;;;;;;;;5069369;28;28438;-79
2024/01/01 00:39:55;;;;;;;;;8.67;7.00;;;;;;;;5089472;28;28445;-79
2024/01/01 00:42:20;;;;;;;;;18.33;12.00;;;;;;;;5088438;28;28531;-80
2024/01/01 00:44:46;;;;;;;;;9.00;6.00;;;;;;;;5087751;28;29725;-79
2024/01/01 00:47:12;;;;;;;;;7.00;4.33;;;;;;;;5086727;28;29040;-79
2024/01/01 00:49:37;;;;;;;;;9.67;4.33;;;;;;;;5077532;28;28418;-79
2024/01/01 00:52:03;;;;;;;;;5.33;4.00;;;;;;;;5053862;28;28543;-80
2024/01/01 00:54:28;;;;;;;;;6.33;3.33;;;;;;;;5078170;28;28881;-80
2024/01/01 00:56:54;;;;;;;;;8.33;5.00;;;;;;;;5050995;28;28512;-79
2024/01/01 00:59:20;;;;;;;;;6.33;5.00;;;;;;;;5051616;28;28544;-78
2024/01/01 01:01:45;;;;;;;;;6.00;4.33;;;;;;;;5078735;28;28559;-80
2024/01/01 01:04:10;;;;;;;;;6.67;4.00;;;;;;;;5070886;28;28970;-80
2024/01/01 01:06:36;;;;;;;;;12.67;3.33;;;;;;;;5069439;28;28525;-80
2024/01/01 01:09:01;;;;;;;;;6.00;5.00;;;;;;;;5053476;28;28932;-78
2024/01/01 01:11:26;;;;;;;;;6.67;4.00;;;;;;;;5052471;28;28872;-79
2024/01/01 01:13:51;;;;;;;;;10.67;5.33;;;;;;;;5069210;28;28900;-79
2024/01/01 01:16:17;;;;;;;;;10.00;4.00;;;;;;;;5069361;28;28497;-79
2024/01/01 01:18:42;;;;;;;;;7.00;5.33;;;;;;;;5070471;28;28372;-80
2024/01/01 01:21:09;;;;;;;;;7.33;5.33;;;;;;;;5051293;28;28541;-79
2024/01/01 01:23:34;;;;;;;;;7.67;4.33;;;;;;;;5069936;28;29134;-78
2024/01/01 01:25:59;;;;;;;;;13.00;6.00;;;;;;;;5070128;28;29419;-79
2024/01/01 01:28:25;;;;;;;;;7.33;5.67;;;;;;;;5052716;28;28437;-78
2024/01/01 01:30:50;;;;;;;;;8.33;3.67;;;;;;;;5071356;28;28836;-77
2024/01/01 01:33:16;;;;;;;;;15.67;11.00;;;;;;;;5052585;28;30390;-77
2024/01/01 01:35:41;;;;;;;;;5.00;4.00;;;;;;;;5072259;28;29587;-79
2024/01/01 01:38:06;;;;;;;;;6.00;3.67;;;;;;;;5078844;28;28508;-77
2024/01/01 01:40:32;;;;;;;;;5.00;3.00;;;;;;;;5052475;28;28696;-77
2024/01/01 01:42:58;;;;;;;;;10.00;5.33;;;;;;;;5067666;28;28544;-79
2024/01/01 01:45:23;;;;;;;;;7.33;5.33;;;;;;;;5086624;28;28510;-80
2024/01/01 01:47:48;;;;;;;;;8.67;4.67;;;;;;;;5088707;28;28539;-80
2024/01/01 01:50:14;;;;;;;;;5.33;3.67;;;;;;;;5075216;28;28561;-78
2024/01/01 01:52:40;;;;;;;;;6.00;2.00;;;;;;;;5067699;28;29180;-77
2024/01/01 01:55:06;;;;;;;;;6.33;4.00;;;;;;;;5035702;28;29695;-79
2024/01/01 01:57:32;;;;;;;;;7.67;5.00;;;;;;;;5074066;28;28928;-79
2024/01/01 01:59:58;;;;;;;;;4.67;3.00;;;;;;;;5070014;28;28699;-77
2024/01/01 02:02:26;;;;;;;;;7.33;3.67;;;;;;;;5057671;28;29295;-77
2024/01/01 02:04:52;;;;;;;;;5.00;4.00;;;;;;;;5089618;28;29234;-80
2024/01/01 02:07:17;;;;;;;;;6.67;3.00;;;;;;;;5079743;28;28836;-78
2024/01/01 02:09:42;;;;;;;;;6.00;3.00;;;;;;;;5071209;28;28680;-77
2024/01/01 02:12:08;;;;;;;;;6.00;4.67;;;;;;;;5054785;28;29903;-78
2024/01/01 02:14:35;;;;;;;;;5.00;4.33;;;;;;;;5050550;28;29933;-78
2024/01/01 02:17:03;;;;;;;;;8.00;4.00;;;;;;;;5069258;28;28592;-78
2024/01/01 02:19:29;;;;;;;;;6.33;4.67;;;;;;;;5052437;28;28672;-79
2024/01/01 02:21:55;;;;;;;;;7.00;3.00;;;;;;;;5071533;28;28623;-77
2024/01/01 02:24:20;;;;;;;;;6.00;4.00;;;;;;;;5071162;28;28479;-79
2024/01/01 02:26:48;;;;;;;;;4.00;2.67;;;;;;;;5067348;28;29958;-79
2024/01/01 02:29:14;;;;;;;;;7.00;4.00;;;;;;;;5063623;28;28957;-77
2024/01/01 02:31:39;;;;;;;;;8.33;4.00;;;;;;;;5060421;28;28829;-78
2024/01/01 02:34:05;;;;;;;;;7.00;3.00;;;;;;;;5062319;28;28744;-78
2024/01/01 02:36:39;;;;;;;;;7.67;3.33;;;;;;;;5072000;28;28464;-77
2024/01/01 02:39:05;;;;;;;;;5.33;4.67;;;;;;;;5039901;28;28598;-79
2024/01/01 02:41:32;;;;;;;;;8.33;4.00;;;;;;;;5072091;28;28621;-78
2024/01/01 02:44:01;;;;;;;;;5.33;2.00;;;;;;;;5055122;28;28824;-80
2024/01/01 02:46:27;;;;;;;;;10.67;5.67;;;;;;;;5074728;28;28387;-79
2024/01/01 02:48:52;;;;;;;;;8.67;4.00;;;;;;;;5056006;28;28565;-81
2024/01/01 02:51:18;;;;;;;;;5.33;3.00;;;;;;;;5074409;28;28544;-79
2024/01/01 02:53:43;;;;;;;;;9.00;4.00;;;;;;;;5076958;28;28583;-81
2024/01/01 02:56:17;;;;;;;;;4.33;3.00;;;;;;;;5084746;28;28671;-78
2024/01/01 02:58:43;;;;;;;;;6.33;4.00;;;;;;;;5078470;28;28617;-80
2024/01/01 03:01:08;;;;;;;;;2.33;2.33;;;;;;;;5063307;28;28486;-81
2024/01/01 03:03:34;;;;;;;;;6.00;4.00;;;;;;;;5061981;28;28554;-80
2024/01/01 03:06:06;;;;;;;;;2.00;2.00;;;;;;;;5073676;28;28527;-78
2024/01/01 03:08:31;;;;;;;;;2.00;2.00;;;;;;;;5059636;28;28541;-78
2024/01/01 03:10:57;;;;;;;;;4.00;2.67;;;;;;;;5078386;28;28306;-78
2024/01/01 03:13:23;;;;;;;;;2.00;2.00;;;;;;;;5078296;28;29103;-78
2024/01/01 03:15:49;;;;;;;;;10.00;5.00;;;;;;;;5073035;28;28441;-78
2024/01/01 03:18:17;;;;;;;;;12.67;5.00;;;;;;;;5066763;28;28544;-78
2024/01/01 03:20:43;;;;;;;;;7.33;3.00;;;;;;;;5042378;28;28526;-75
2024/01/01 03:23:11;;;;;;;;;5.33;4.33;;;;;;;;5035176;28;28585;-77
2024/01/01 03:25:37;;;;;;;;;3.33;3.33;;;;;;;;5073438;28;28387;-78
2024/01/01 03:28:03;;;;;;;;;5.33;3.67;;;;;;;;5055287;28;28839;-79
2024/01/01 03:30:28;;;;;;;;;4.33;3.00;;;;;;;;5074920;28;28675;-78
2024/01/01 03:32:54;;;;;;;;;6.67;4.00;;;;;;;;5079880;28;29056;-78
2024/01/01 03:35:19;;;;;;;;;7.00;5.00;;;;;;;;5079119;28;28619;-78
2024/01/01 03:37:45;;;;;;;;;9.33;4.33;;;;;;;;5089695;28;28877;-77
2024/01/01 03:40:11;;;;;;;;;4.67;4.00;;;;;;;;5089746;28;29126;-78
2024/01/01 03:42:36;;;;;;;;;8.00;8.00;;;;;;;;5090169;28;29069;-77
2024/01/01 03:45:03;;;;;;;;;11.33;9.33;;;;;;;;5075545;28;28533;-78
2024/01/01 03:47:29;;;;;;;;;13.67;9.00;;;;;;;;5070375;28;28492;-77
2024/01/01 03:49:55;;;;;;;;;8.00;5.67;;;;;;;;5075487;28;28632;-78
2024/01/01 03:52:21;;;;;;;;;6.67;5.33;;;;;;;;5082750;28;28530;-78
2024/01/01 03:54:46;;;;;;;;;6.67;5.67;;;;;;;;5068415;28;28428;-78
2024/01/01 03:57:12;;;;;;;;;5.00;4.00;;;;;;;;5068662;28;28509;-76
2024/01/01 03:59:38;;;;;;;;;2.00;2.00;;;;;;;;5074418;28;28862;-78
2024/01/01 04:02:03;;;;;;;;;5.33;4.00;;;;;;;;5069309;28;30776;-77
2024/01/01 04:04:28;;;;;;;;;2.00;2.00;;;;;;;;5079132;28;28914;-78
2024/01/01 04:06:53;;;;;;;;;3.67;2.00;;;;;;;;5071293;28;28871;-77
2024/01/01 04:09:19;;;;;;;;;3.00;1.67;;;;;;;;5074958;28;29917;-76
2024/01/01 04:11:44;;;;;;;;;4.00;2.00;;;;;;;;5068517;28;29175;-78
2024/01/01 04:14:09;;;;;;;;;3.33;3.33;;;;;;;;5068931;28;28815;-75
2024/01/01 04:16:36;;;;;;;;;7.33;1.00;;;;;;;;5068139;28;28513;-80
2024/01/01 04:19:01;;;;;;;;;6.00;3.00;;;;;;;;5061610;28;28613;-76
2024/01/01 04:21:27;;;;;;;;;4.00;1.67;;;;;;;;5067958;28;28914;-77
2024/01/01 04:23:54;;;;;;;;;2.00;2.00;;;;;;;;5049770;28;29568;-77
2024/01/01 04:26:19;;;;;;;;;5.67;3.00;;;;;;;;5068812;28;28513;-78
2024/01/01 04:28:44;;;;;;;;;3.67;1.00;;;;;;;;5087393;28;28477;-76
2024/01/01 04:31:12;;;;;;;;;7.00;2.00;;;;;;;;5088502;28;28704;-76
2024/01/01 04:33:37;;;;;;;;;2.00;1.33;;;;;;;;5069190;28;29241;-77
2024/01/01 04:36:03;;;;;;;;;5.67;2.00;;;;;;;;5075771;28;28571;-81
2024/01/01 04:38:30;;;;;;;;;3.33;1.67;;;;;;;;5067242;28;29287;-79
2024/01/01 04:40:56;;;;;;;;;5.67;1.67;;;;;;;;5087170;28;29573;-77
2024/01/01 04:43:24;;;;;;;;;2.67;0.33;;;;;;;;5081611;28;28845;-78
2024/01/01 04:45:52;;;;;;;;;4.33;1.33;;;;;;;;5053049;28;28766;-79
2024/01/01 04:48:18;;;;;;;;;1.00;1.00;;;;;;;;5068633;28;28676;-77
2024/01/01 04:50:43;;;;;;;;;3.00;2.67;;;;;;;;5055599;28;31165;-79
2024/01/01 04:53:08;;;;;;;;;4.00;2.00;;;;;;;;5074223;28;29004;-77
2024/01/01 04:55:34;;;;;;;;;3.33;1.00;;;;;;;;5080716;28;28777;-78
2024/01/01 04:57:59;;;;;;;;;3.00;1.33;;;;;;;;5063343;28;28684;-77
2024/01/01 05:00:24;;;;;;;;;2.00;2.00;;;;;;;;5062736;28;31187;-78
2024/01/01 05:02:50;;;;;;;;;5.67;2.33;;;;;;;;5054300;28;29457;-80
2024/01/01 05:05:16;;;;;;;;;4.00;2.00;;;;;;;;5056930;28;28912;-79
2024/01/01 05:07:43;;;;;;;;;5.00;1.00;;;;;;;;5074935;28;28505;-77
2024/01/01 05:10:09;;;;;;;;;4.67;2.00;;;;;;;;5060693;28;30454;-79
2024/01/01 05:12:34;;;;;;;;;4.33;1.67;;;;;;;;5039604;28;28953;-79
2024/01/01 05:15:01;;;;;;;;;5.67;2.00;;;;;;;;5079050;28;28612;-79
2024/01/01 05:17:27;;;;;;;;;3.00;3.00;;;;;;;;5068372;28;28760;-78
2024/01/01 05:19:52;;;;;;;;;4.33;2.00;;;;;;;;5054357;28;30285;-77
2024/01/01 05:22:18;;;;;;;;;5.33;2.00;;;;;;;;5081629;28;29017;-78
2024/01/01 05:24:43;;;;;;;;;2.33;2.33;;;;;;;;5074348;28;28978;-76
2024/01/01 05:27:09;;;;;;;;;2.00;2.00;;;;;;;;5049305;28;30551;-76
2024/01/01 05:29:34;;;;;;;;;6.67;1.33;;;;;;;;5074371;27;28497;-76
2024/01/01 05:32:00;;;;;;;;;6.67;4.00;;;;;;;;5074558;28;28469;-77
2024/01/01 05:34:25;;;;;;;;;3.33;1.00;;;;;;;;5061866;28;28461;-77
2024/01/01 05:36:53;;;;;;;;;2.67;1.67;;;;;;;;5079466;28;28866;-78
2024/01/01 05:39:19;;;;;;;;;6.67;3.00;;;;;;;;5084101;28;28899;-77
2024/01/01 05:41:44;;;;;;;;;3.67;1.33;;;;;;;;5055078;28;28937;-78
2024/01/01 05:44:21;;;;;;;;;5.67;2.00;;;;;;;;5076291;28;28419;-78
2024/01/01 05:46:47;;;;;;;;;3.00;1.00;;;;;;;;5080493;28;29218;-77
2024/01/01 05:49:13;;;;;;;;;1.00;1.00;;;;;;;;5069289;28;28880;-77
2024/01/01 05:51:38;;;;;;;;;2.67;2.00;;;;;;;;5076807;28;28571;-78
2024/01/01 05:54:03;;;;;;;;;3.33;2.00;;;;;;;;5056260;28;28870;-77
2024/01/01 05:56:28;;;;;;;;;2.00;2.00;;;;;;;;5060163;28;30112;-76
2024/01/01 05:58:54;;;;;;;;;5.67;1.00;;;;;;;;5063381;28;28609;-78
2024/01/01 06:01:19;;;;;;;;;3.33;1.33;;;;;;;;5061754;28;28517;-79
2024/01/01 06:03:46;;;;;;;;;2.00;1.67;;;;;;;;5073907;28;28157;-77
2024/01/01 06:06:13;;;;;;;;;1.00;1.00;;;;;;;;5061992;28;28568;-78
2024/01/01 06:08:39;;;;;;;;;5.67;2.00;;;;;;;;5048463;28;30022;-79
2024/01/01 06:11:04;;;;;;;;;3.33;3.00;;;;;;;;5074019;28;28813;-78
2024/01/01 06:13:32;;;;;;;;;3.67;1.67;;;;;;;;5074204;28;28480;-78
2024/01/01 06:15:59;;;;;;;;;4.67;2.00;;;;;;;;5079630;28;28537;-78
2024/01/01 06:18:25;;;;;;;;;4.00;1.00;;;;;;;;5058781;28;29398;-78
2024/01/01 06:20:50;;;;;;;;;1.00;1.00;;;;;;;;5069626;28;28586;-80
2024/01/01 06:23:16;;;;;;;;;4.00;3.33;;;;;;;;5066334;28;28540;-78
2024/01/01 06:25:41;;;;;;;;;2.00;1.00;;;;;;;;5052256;28;29669;-78
2024/01/01 06:28:07;;;;;;;;;0.67;0.67;;;;;;;;5083554;28;28822;-79
2024/01/01 06:30:34;;;;;;;;;2.67;2.67;;;;;;;;5070878;28;28925;-79
2024/01/01 06:33:01;;;;;;;;;6.67;1.67;;;;;;;;5078799;28;28438;-78
2024/01/01 06:35:30;;;;;;;;;2.33;2.00;;;;;;;;5069889;28;29175;-77
2024/01/01 06:37:55;;;;;;;;;2.33;1.00;;;;;;;;5055173;28;28653;-78
2024/01/01 06:40:20;;;;;;;;;2.67;1.00;;;;;;;;5066674;28;28577;-78
2024/01/01 06:42:45;;;;;;;;;6.00;2.00;;;;;;;;5061445;28;28580;-79
2024/01/01 06:45:11;;;;;;;;;7.33;3.00;;;;;;;;5061226;28;29257;-77
2024/01/01 06:47:38;;;;;;;;;5.33;3.00;;;;;;;;5066048;28;28715;-78
2024/01/01 06:50:03;;;;;;;;;4.67;3.00;;;;;;;;5051318;28;29489;-78
2024/01/01 06:52:29;;;;;;;;;1.00;1.00;;;;;;;;5067128;28;28801;-77
2024/01/01 06:54:54;;;;;;;;;1.67;1.00;;;;;;;;5070126;28;28532;-78
2024/01/01 06:57:20;;;;;;;;;1.00;1.00;;;;;;;;5067396;28;28989;-77
2024/01/01 06:59:45;;;;;;;;;4.33;3.00;;;;;;;;5065869;28;28519;-77
2024/01/01 07:02:10;;;;;;;;;4.67;2.00;;;;;;;;5065102;28;28482;-75
2024/01/01 07:04:36;;;;;;;;;3.33;2.33;;;;;;;;5047078;28;30728;-77
2024/01/01 07:07:04;;;;;;;;;2.67;2.67;;;;;;;;5050012;28;30850;-76
2024/01/01 07:09:30;;;;;;;;;2.00;1.33;;;;;;;;5047141;28;28971;-76
2024/01/01 07:11:57;;;;;;;;;4.33;1.00;;;;;;;;5049681;28;28829;-75
2024/01/01 07:14:32;;;;;;;;;3.67;2.00;;;;;;;;5060934;27;28611;-88
2024/01/01 07:16:57;;;;;;;;;3.00;2.00;;;;;;;;5053742;28;28464;-77
2024/01/01 07:19:23;;;;;;;;;3.33;2.00;;;;;;;;5042761;28;28581;-78
2024/01/01 07:21:48;;;;;;;;;3.67;2.00;;;;;;;;5068075;28;28635;-77
2024/01/01 07:24:14;;;;;;;;;2.00;2.00;;;;;;;;5070814;28;28893;-73
2024/01/01 07:26:40;;;;;;;;;4.00;2.00;;;;;;;;5059905;28;28653;-75
2024/01/01 07:29:05;;;;;;;;;5.67;1.67;;;;;;;;5062191;28;28604;-75
2024/01/01 07:31:30;;;;;;;;;8.33;2.33;;;;;;;;5048111;28;28899;-75
2024/01/01 07:33:56;;;;;;;;;4.00;2.00;;;;;;;;5071194;28;28604;-75
2024/01/01 07:36:21;;;;;;;;;5.67;3.33;;;;;;;;5066697;28;29395;-74
2024/01/01 07:38:46;;;;;;;;;4.00;4.00;;;;;;;;5041750;28;29374;-73
2024/01/01 07:41:11;;;;;;;;;2.33;1.33;;;;;;;;5046976;28;28825;-75
2024/01/01 07:43:37;;;;;;;;;3.67;0.67;;;;;;;;5067724;28;28643;-73
2024/01/01 07:46:03;;;;;;;;;8.67;2.67;;;;;;;;5045368;28;30429;-74
2024/01/01 07:48:28;;;;;;;;;4.67;2.00;;;;;;;;5066417;28;28593;-75
2024/01/01 07:50:53;;;;;;;;;8.00;4.00;;;;;;;;5059058;28;29028;-73
2024/01/01 07:53:18;;;;;;;;;4.33;1.33;;;;;;;;5065085;28;28850;-74
2024/01/01 07:55:44;;;;;;;;;4.67;2.00;;;;;;;;5067283;28;29104;-74
2024/01/01 07:58:09;;;;;;;;;2.67;1.67;;;;;;;;5074547;28;28542;-75
2024/01/01 08:00:34;;;;;;;;;4.00;2.00;;;;;;;;5066477;28;28887;-74
2024/01/01 08:03:00;;;;;;;;;6.33;1.33;;;;;;;;5068981;28;28556;-74
2024/01/01 08:05:26;;;;;;;;;3.33;2.67;;;;;;;;5067478;28;29549;-75
2024/01/01 08:07:51;;;;;;;;;5.33;3.00;;;;;;;;5071377;28;28600;-78
2024/01/01 08:10:17;;;;;;;;;7.00;2.00;;;;;;;;5059401;28;28884;-74
2024/01/01 08:12:42;;;;;;;;;3.00;1.67;;;;;;;;5077525;28;28560;-73
2024/01/01 08:15:08;;;;;;;;;2.00;0.33;;;;;;;;5068047;28;28528;-74
2024/01/01 08:17:33;;;;;;;;;4.33;2.00;;;;;;;;5070478;28;28576;-75
2024/01/01 08:19:58;;;;;;;;;7.33;4.00;;;;;;;;5064951;28;28703;-75
2024/01/01 08:22:24;;;;;;;;;3.33;1.00;;;;;;;;5064521;28;29100;-75
2024/01/01 08:24:49;;;;;;;;;2.67;1.33;;;;;;;;5056422;28;28509;-75
2024/01/01 08:27:14;;;;;;;;;9.00;3.00;;;;;;;;5056538;28;28971;-73
2024/01/01 08:29:39;;;;;;;;;8.00;2.67;;;;;;;;5055657;28;28600;-75
2024/01/01 08:32:05;;;;;;;;;3.00;1.67;;;;;;;;5046157;28;29104;-74
2024/01/01 08:34:31;;;;;;;;;7.67;3.00;;;;;;;;5061381;28;29320;-75
2024/01/01 08:36:58;;;;;;;;;6.00;1.00;;;;;;;;5063165;28;28899;-75
2024/01/01 08:39:24;;;;;;;;;4.00;2.67;;;;;;;;5064741;28;28612;-75
2024/01/01 08:41:49;;;;;;;;;3.67;2.00;;;;;;;;5065496;28;28477;-74
2024/01/01 08:44:14;;;;;;;;;6.33;3.67;;;;;;;;5066414;28;28989;-74
2024/01/01 08:46:40;;;;;;;;;5.67;2.00;;;;;;;;5065741;28;28707;-75
2024/01/01 08:49:05;;;;;;;;;2.67;1.00;;;;;;;;5065634;28;28626;-76
2024/01/01 08:51:30;;;;;;;;;4.00;1.33;;;;;;;;5062734;28;28603;-76
2024/01/01 08:53:56;;;;;;;;;3.00;1.00;;;;;;;;5065313;28;29023;-78
2024/01/01 08:56:21;;;;;;;;;3.67;2.67;;;;;;;;5061271;28;28487;-75
2024/01/01 08:58:46;;;;;;;;;5.00;3.00;;;;;;;;5065793;28;29092;-74
2024/01/01 09:01:11;;;;;;;;;8.00;2.33;;;;;;;;5052750;28;29193;-77
2024/01/01 09:03:37;;;;;;;;;5.33;2.33;;;;;;;;5049583;28;29735;-74
2024/01/01 09:06:03;;;;;;;;;4.00;1.67;;;;;;;;5043666;28;28510;-75
2024/01/01 09:08:29;;;;;;;;;3.00;3.00;;;;;;;;5063849;28;28833;-73
2024/01/01 09:10:54;;;;;;;;;16.00;8.67;;;;;;;;5064744;28;28538;-75
2024/01/01 09:13:19;;;;;;;;;2.67;2.00;;;;;;;;5048965;28;30218;-74
2024/01/01 09:15:44;;;;;;;;;5.00;4.00;;;;;;;;5065060;28;28535;-77
2024/01/01 09:18:10;;;;;;;;;3.67;3.00;;;;;;;;5047245;28;28514;-75
2024/01/01 09:20:35;;;;;;;;;4.33;4.00;;;;;;;;5065366;28;28654;-75
2024/01/01 09:23:00;;;;;;;;;3.00;3.00;;;;;;;;5067969;28;28584;-75
2024/01/01 09:25:25;;;;;;;;;7.00;3.00;;;;;;;;5069641;28;28473;-74
2024/01/01 09:27:52;;;;;;;;;3.00;3.00;;;;;;;;5066256;28;29000;-75
2024/01/01 09:30:21;;;;;;;;;5.00;3.00;;;;;;;;5063150;28;29387;-74
2024/01/01 09:32:46;;;;;;;;;1.00;1.00;;;;;;;;5067317;28;28906;-77
2024/01/01 09:35:12;;;;;;;;;3.00;2.00;;;;;;;;5066540;28;28534;-74
2024/01/01 09:37:37;;;;;;;;;5.00;3.67;;;;;;;;5065027;28;28920;-74
2024/01/01 09:40:03;;;;;;;;;5.67;3.00;;;;;;;;5049034;28;30705;-77
2024/01/01 09:42:29;;;;;;;;;5.67;3.00;;;;;;;;5068393;28;28644;-78
2024/01/01 09:44:54;;;;;;;;;2.00;2.00;;;;;;;;5068789;28;28382;-77
2024/01/01 09:47:19;;;;;;;;;5.67;3.00;;;;;;;;5049141;28;28447;-76
2024/01/01 09:49:45;;;;;;;;;3.33;1.00;;;;;;;;5048842;28;29327;-76
2024/01/01 09:52:16;;;;;;;;;4.67;2.00;;;;;;;;5069805;28;28774;-76
2024/01/01 09:54:42;;;;;;;;;5.67;4.67;;;;;;;;5067594;28;29743;-74
2024/01/01 09:57:07;;;;;;;;;3.67;2.67;;;;;;;;5068490;28;28450;-77
2024/01/01 09:59:36;;;;;;;;;2.67;2.67;;;;;;;;5066997;28;28551;-77
2024/01/01 10:02:04;;;;;;;;;4.33;3.00;;;;;;;;5044026;28;29800;-76
2024/01/01 10:04:30;;;;;;;;;5.00;2.00;;;;;;;;5045480;28;30263;-78
2024/01/01 10:06:55;;;;;;;;;9.67;3.33;;;;;;;;5066852;28;28672;-77
2024/01/01 10:09:21;;;;;;;;;5.00;3.00;;;;;;;;5066871;28;28693;-75
2024/01/01 10:11:46;;;;;;;;;3.00;2.00;;;;;;;;5066577;28;29113;-76
2024/01/01 10:14:11;;;;;;;;;5.67;2.33;;;;;;;;5070712;28;28549;-77
2024/01/01 10:16:40;;;;;;;;;4.00;2.33;;;;;;;;5065041;28;28557;-77
2024/01/01 10:19:06;;;;;;;;;5.67;2.00;;;;;;;;5065428;28;29042;-76
2024/01/01 10:21:32;;;;;;;;;2.33;1.67;;;;;;;;5071112;28;28743;-76
2024/01/01 10:23:58;;;;;;;;;3.00;2.33;;;;;;;;5064955;28;28591;-76
2024/01/01 10:26:24;;;;;;;;;6.00;5.00;;;;;;;;5067039;28;28929;-76
2024/01/01 10:28:50;;;;;;;;;2.67;1.33;;;;;;;;5066177;28;28918;-76
2024/01/01 10:31:15;;;;;;;;;9.33;7.67;;;;;;;;5066185;28;28505;-76
2024/01/01 10:33:41;;;;;;;;;3.00;3.00;;;;;;;;5046521;28;28496;-78
2024/01/01 10:36:06;;;;;;;;;3.00;2.33;;;;;;;;5065616;28;28557;-79
2024/01/01 10:38:33;;;;;;;;;4.33;3.33;;;;;;;;5062315;28;28992;-77
2024/01/01 10:40:59;;;;;;;;;3.00;1.00;;;;;;;;5070305;28;29126;-78
2024/01/01 10:43:28;;;;;;;;;4.67;3.00;;;;;;;;5070642;28;28941;-79
2024/01/01 10:46:01;;;;;;;;;7.00;4.00;;;;;;;;5052602;28;28963;-80
2024/01/01 10:48:26;;;;;;;;;5.00;3.00;;;;;;;;5079522;28;28577;-78
2024/01/01 10:51:10;;;;;;;;;4.67;2.33;;;;;;;;5073710;28;28564;-79
2024/01/01 10:53:38;;;;;;;;;2.67;2.67;;;;;;;;5078825;28;29590;-80
2024/01/01 10:56:31;;;;;;;;;6.33;6.00;;;;;;;;5049887;28;28762;-78
2024/01/01 10:59:10;;;;;;;;;2.67;2.67;;;;;;;;5073660;28;28478;-77
2024/01/01 11:01:37;;;;;;;;;4.67;3.00;;;;;;;;5062917;28;29863;-77
2024/01/01 11:04:05;;;;;;;;;6.33;5.33;;;;;;;;5074246;28;28895;-79
2024/01/01 11:06:35;;;;;;;;;2.33;1.67;;;;;;;;5087302;28;28490;-84
2024/01/01 11:09:18;;;;;;;;;3.67;2.67;;;;;;;;5074897;28;28452;-85
2024/01/01 11:11:51;;;;;;;;;5.67;2.67;;;;;;;;5051907;28;29591;-84
2024/01/01 11:14:45;;;;;;;;;6.00;4.33;;;;;;;;5059215;28;28439;-85
2024/01/01 11:17:11;;;;;;;;;9.33;7.67;;;;;;;;5056205;28;28931;-84
2024/01/01 11:19:44;;;;;;;;;17.67;14.67;;;;;;;;5089297;28;29289;-84
2024/01/01 11:22:30;;;;;;;;;19.00;16.33;;;;;;;;5081708;28;28991;-85
2024/01/01 11:25:03;;;;;;;;;16.33;13.33;;;;;;;;5063299;28;29323;-84
2024/01/01 11:27:35;;;;;;;;;24.67;21.00;;;;;;;;5061516;28;28534;-86
2024/01/01 11:30:07;;;;;;;;;7.33;6.33;;;;;;;;5072775;28;30035;-86
2024/01/01 11:32:34;;;;;;;;;15.33;7.67;;;;;;;;5058853;28;28640;-84
2024/01/01 11:35:06;;;;;;;;;7.33;5.67;;;;;;;;5062818;28;29494;-84
2024/01/01 11:37:32;;;;;;;;;16.33;15.00;;;;;;;;5057123;28;28636;-86
2024/01/01 11:39:58;;;;;;;;;11.33;11.33;;;;;;;;5039488;28;29196;-84
2024/01/01 11:42:24;;;;;;;;;14.33;9.00;;;;;;;;5053123;28;28591;-84
2024/01/01 11:44:49;;;;;;;;;10.00;9.00;;;;;;;;5055676;28;28427;-83
2024/01/01 11:47:17;;;;;;;;;9.00;6.00;;;;;;;;5056217;28;28497;-85
2024/01/01 11:49:42;;;;;;;;;14.33;9.67;;;;;;;;5050524;28;28908;-86
2024/01/01 11:52:12;;;;;;;;;13.33;11.33;;;;;;;;5053700;28;30239;-86
2024/01/01 11:54:38;;;;;;;;;4.67;4.00;;;;;;;;5047847;28;28470;-85
2024/01/01 11:57:03;;;;;;;;;6.00;5.33;;;;;;;;5047569;28;28857;-85
2024/01/01 11:59:29;;;;;;;;;11.00;5.00;;;;;;;;5054250;28;29203;-84
2024/01/01 12:01:56;;;;;;;;;16.00;12.00;;;;;;;;5052747;28;29819;-85
2024/01/01 12:04:21;;;;;;;;;8.33;6.33;;;;;;;;5048881;28;30368;-85
2024/01/01 12:06:51;;;;;;;;;5.00;3.67;;;;;;;;5059517;28;28419;-85
2024/01/01 12:09:16;;;;;;;;;5.00;2.00;;;;;;;;5060754;28;29136;-84
2024/01/01 12:11:42;;;;;;;;;12.67;10.33;;;;;;;;5054187;28;28759;-83
2024/01/01 12:14:08;;;;;;;;;10.33;7.33;;;;;;;;5057222;28;28548;-82
2024/01/01 12:16:34;;;;;;;;;13.67;8.00;;;;;;;;5049265;28;28834;-83
2024/01/01 12:19:00;;;;;;;;;8.00;6.67;;;;;;;;5050263;28;29357;-79
2024/01/01 12:21:36;;;;;;;;;6.67;5.67;;;;;;;;5046685;28;28783;-79
2024/01/01 12:24:03;;;;;;;;;10.00;4.00;;;;;;;;5048444;28;28979;-78
2024/01/01 12:26:28;;;;;;;;;3.00;2.00;;;;;;;;5048030;28;28853;-81
2024/01/01 12:29:10;;;;;;;;;4.00;4.00;;;;;;;;5045072;28;28669;-79
2024/01/01 12:31:39;;;;;;;;;3.33;3.33;;;;;;;;5046410;28;29983;-78
2024/01/01 12:34:05;;;;;;;;;5.67;3.00;;;;;;;;5037924;28;28820;-78
2024/01/01 12:36:31;;;;;;;;;5.67;3.00;;;;;;;;5057189;28;28434;-77
2024/01/01 12:38:56;;;;;;;;;5.67;4.00;;;;;;;;5039142;28;30353;-79
2024/01/01 12:41:21;;;;;;;;;2.33;2.33;;;;;;;;5051574;28;28426;-78
2024/01/01 12:43:46;;;;;;;;;3.00;3.00;;;;;;;;5046802;28;28470;-80
2024/01/01 12:46:15;;;;;;;;;1.00;1.00;;;;;;;;5054441;28;28894;-79
2024/01/01 12:48:46;;;;;;;;;13.00;2.67;;;;;;;;5046099;28;29207;-81
2024/01/01 12:51:15;;;;;;;;;2.67;2.67;;;;;;;;5056933;28;29150;-80
2024/01/01 12:53:41;;;;;;;;;4.67;4.33;;;;;;;;5049149;28;29017;-80
2024/01/01 12:56:06;;;;;;;;;2.00;1.67;;;;;;;;5049269;28;28635;-79
2024/01/01 12:58:32;;;;;;;;;2.67;1.33;;;;;;;;5059527;28;28609;-81
2024/01/01 13:00:57;;;;;;;;;3.67;2.00;;;;;;;;5059500;28;29111;-82
2024/01/01 13:03:22;;;;;;;;;1.00;0.00;;;;;;;;5055071;28;28894;-81
2024/01/01 13:05:48;;;;;;;;;1.33;1.00;;;;;;;;5047506;28;28890;-80
2024/01/01 13:08:13;;;;;;;;;8.00;1.00;;;;;;;;5051919;28;29240;-82
2024/01/01 13:10:39;;;;;;;;;3.33;1.67;;;;;;;;5056071;28;28725;-81
2024/01/01 13:13:04;;;;;;;;;4.00;2.00;;;;;;;;5054392;28;28892;-83
2024/01/01 13:15:31;;;;;;;;;2.33;2.00;;;;;;;;5064359;28;28655;-78
2024/01/01 13:17:57;;;;;;;;;6.67;2.00;;;;;;;;5048822;28;28814;-81
2024/01/01 13:20:22;;;;;;;;;10.33;4.00;;;;;;;;5055795;28;28835;-80
2024/01/01 13:22:48;;;;;;;;;4.67;3.00;;;;;;;;5060932;28;28700;-80
2024/01/01 13:25:13;;;;;;;;;4.33;2.33;;;;;;;;5054383;28;29128;-81
2024/01/01 13:27:38;;;;;;;;;4.00;3.00;;;;;;;;5046999;28;28919;-79
2024/01/01 13:30:05;;;;;;;;;7.00;3.33;;;;;;;;5062594;28;28922;-82
2024/01/01 13:32:30;;;;;;;;;4.33;2.00;;;;;;;;5069203;28;28560;-81
2024/01/01 13:34:55;;;;;;;;;4.00;3.00;;;;;;;;5048264;28;29168;-84
2024/01/01 13:37:21;;;;;;;;;2.00;2.00;;;;;;;;5067633;28;28751;-80
2024/01/01 13:39:46;;;;;;;;;6.33;5.00;;;;;;;;5059995;28;30820;-80
2024/01/01 13:42:11;;;;;;;;;4.67;3.00;;;;;;;;5073628;28;28469;-80
2024/01/01 13:44:36;;;;;;;;;6.00;3.67;;;;;;;;5065925;28;28653;-80
2024/01/01 13:47:03;;;;;;;;;5.33;4.00;;;;;;;;5076388;28;28996;-80
2024/01/01 13:49:28;;;;;;;;;4.33;4.33;;;;;;;;5083118;28;28728;-80
2024/01/01 13:51:56;;;;;;;;;5.33;5.33;;;;;;;;5077876;28;28422;-80
2024/01/01 13:54:21;;;;;;;;;16.33;9.00;;;;;;;;5049205;28;28561;-80
2024/01/01 13:56:46;;;;;;;;;5.67;3.00;;;;;;;;5080278;28;28511;-81
2024/01/01 13:59:12;;;;;;;;;8.00;5.33;;;;;;;;5077893;28;28733;-88
2024/01/01 14:01:38;;;;;;;;;7.00;3.67;;;;;;;;5061998;28;29601;-78
2024/01/01 14:04:03;;;;;;;;;4.00;3.00;;;;;;;;5070917;28;28510;-81
2024/01/01 14:06:28;;;;;;;;;5.00;3.33;;;;;;;;5072404;28;28625;-82
2024/01/01 14:08:53;;;;;;;;;4.33;2.00;;;;;;;;5068125;28;28600;-81
2024/01/01 14:11:19;;;;;;;;;8.00;5.00;;;;;;;;5050688;28;28991;-81
2024/01/01 14:13:44;;;;;;;;;4.67;2.00;;;;;;;;5066982;28;28679;-81
2024/01/01 14:16:10;;;;;;;;;2.67;1.67;;;;;;;;5071735;28;28978;-83
2024/01/01 14:18:35;;;;;;;;;3.00;1.67;;;;;;;;5072635;28;28591;-82
2024/01/01 14:21:00;;;;;;;;;6.67;6.33;;;;;;;;5087088;28;28603;-82
2024/01/01 14:23:26;;;;;;;;;4.00;4.00;;;;;;;;5083135;28;28748;-81
2024/01/01 14:25:51;;;;;;;;;17.67;12.00;;;;;;;;5061151;28;29375;-82
2024/01/01 14:28:16;;;;;;;;;5.33;4.00;;;;;;;;5066354;28;31243;-81
2024/01/01 14:30:41;;;;;;;;;5.00;4.33;;;;;;;;5062461;28;28618;-82
2024/01/01 14:33:07;;;;;;;;;3.67;2.33;;;;;;;;5053832;28;28805;-83
2024/01/01 14:35:32;;;;;;;;;5.33;3.33;;;;;;;;5039873;28;29034;-81